createdAt,value
2023-01-02T00:00:50.661Z,1008.33
2023-01-02T00:01:50.611Z,1008.34
2023-01-02T00:02:50.737Z,1008.32
2023-01-02T00:03:50.846Z,1008.27
2023-01-02T00:04:50.702Z,1008.32
2023-01-02T00:05:51.081Z,1008.34
2023-01-02T00:07:50.789Z,1008.33
2023-01-02T00:09:50.855Z,1008.29
2023-01-02T00:11:51.295Z,1008.30
2023-01-02T00:12:50.935Z,1008.28
2023-01-02T00:13:50.989Z,1008.29
2023-01-02T00:14:51.005Z,1008.27
2023-01-02T00:15:51.096Z,1008.31
2023-01-02T00:16:51.057Z,1008.28
2023-01-02T00:17:51.095Z,1008.28
2023-01-02T00:18:51.558Z,1008.21
2023-01-02T00:19:51.147Z,1008.21
2023-01-02T00:20:51.203Z,1008.17
2023-01-02T00:21:51.212Z,1008.13
2023-01-02T00:22:51.245Z,1008.11
2023-01-02T00:23:51.285Z,1008.07
2023-01-02T00:24:51.323Z,1008.16
2023-01-02T00:25:51.632Z,1008.15
2023-01-02T00:26:51.361Z,1008.18
2023-01-02T00:27:51.393Z,1008.20
2023-01-02T00:28:51.418Z,1008.17
2023-01-02T00:29:51.474Z,1008.15
2023-01-02T00:30:51.484Z,1008.16
2023-01-02T00:32:51.793Z,1008.14
2023-01-02T00:34:51.606Z,1008.16
2023-01-02T00:35:51.649Z,1008.16
2023-01-02T00:36:51.666Z,1008.13
2023-01-02T00:37:51.690Z,1008.15
2023-01-02T00:38:51.722Z,1008.08
2023-01-02T00:39:52.050Z,1008.11
2023-01-02T00:40:51.789Z,1008.06
2023-01-02T00:41:51.828Z,1008.05
2023-01-02T00:42:51.844Z,1008.05
2023-01-02T00:43:51.876Z,1008.02
2023-01-02T00:44:51.907Z,1008.02
2023-01-02T00:46:52.403Z,1008.00
2023-01-02T00:47:51.991Z,1007.95
2023-01-02T00:48:52.021Z,1007.95
2023-01-02T00:49:52.056Z,1007.94
2023-01-02T00:50:52.087Z,1007.89
2023-01-02T00:51:52.117Z,1007.94
2023-01-02T00:52:52.177Z,1007.90
2023-01-02T00:53:52.471Z,1007.96
2023-01-02T00:54:52.207Z,1007.90
2023-01-02T00:55:52.331Z,1007.88
2023-01-02T00:56:52.270Z,1007.90
2023-01-02T00:57:52.393Z,1007.90
2023-01-02T00:58:52.329Z,1007.90
2023-01-02T00:59:52.358Z,1007.96
2023-01-02T01:00:52.723Z,1007.90
2023-01-02T01:01:52.586Z,1007.90
2023-01-02T01:02:52.569Z,1007.93
2023-01-02T01:03:52.486Z,1007.97
2023-01-02T01:04:52.509Z,1007.95
2023-01-02T01:05:52.540Z,1007.88
2023-01-02T01:06:52.568Z,1007.91
2023-01-02T01:07:52.999Z,1007.86
2023-01-02T01:08:52.625Z,1007.88
2023-01-02T01:09:52.656Z,1007.85
2023-01-02T01:11:52.723Z,1007.84
2023-01-02T01:12:52.750Z,1007.88
2023-01-02T01:13:52.804Z,1007.82
2023-01-02T01:14:53.177Z,1007.90
2023-01-02T01:15:52.962Z,1007.86
2023-01-02T01:16:52.890Z,1007.88
2023-01-02T01:17:52.903Z,1007.86
2023-01-02T01:18:52.982Z,1007.90
2023-01-02T01:19:52.980Z,1007.90
2023-01-02T01:20:53.287Z,1007.90
2023-01-02T01:21:53.021Z,1007.91
2023-01-02T01:22:53.071Z,1007.88
2023-01-02T01:23:53.082Z,1007.90
2023-01-02T01:24:53.171Z,1007.91
2023-01-02T01:25:53.140Z,1007.94
2023-01-02T01:26:53.475Z,1007.88
2023-01-02T01:27:53.218Z,1007.89
2023-01-02T01:28:53.356Z,1007.83
2023-01-02T01:29:53.258Z,1007.89
2023-01-02T01:30:53.398Z,1007.85
2023-01-02T01:31:53.371Z,1007.91
2023-01-02T01:32:53.611Z,1007.96
2023-01-02T01:33:53.480Z,1007.96
2023-01-02T01:34:53.432Z,1007.95
2023-01-02T01:35:53.444Z,1007.95
2023-01-02T01:36:53.523Z,1007.96
2023-01-02T01:37:53.503Z,1007.90
2023-01-02T01:38:53.532Z,1007.94
2023-01-02T01:39:56.499Z,1007.94
2023-01-02T01:40:53.589Z,1007.99
2023-01-02T01:41:53.630Z,1007.96
2023-01-02T01:42:59.038Z,1007.97
2023-01-02T01:43:53.687Z,1007.96
2023-01-02T01:44:53.722Z,1007.98
2023-01-02T01:45:53.896Z,1008.03
2023-01-02T01:46:54.072Z,1008.00
2023-01-02T01:47:53.848Z,1008.02
2023-01-02T01:48:53.844Z,1008.00
2023-01-02T01:49:53.864Z,1007.95
2023-01-02T01:50:53.938Z,1007.98
2023-01-02T01:51:53.934Z,1007.98
2023-01-02T01:52:53.957Z,1008.00
2023-01-02T01:53:54.241Z,1007.99
2023-01-02T01:54:54.017Z,1008.03
2023-01-02T01:55:54.054Z,1008.01
2023-01-02T01:56:54.079Z,1008.02
2023-01-02T01:57:54.110Z,1008.07
2023-01-02T01:58:54.136Z,1008.07
2023-01-02T01:59:54.170Z,1008.07
2023-01-02T02:00:54.554Z,1008.10
2023-01-02T02:01:54.486Z,1008.10
2023-01-02T02:02:54.463Z,1008.09
2023-01-02T02:03:54.302Z,1008.12
2023-01-02T02:04:54.317Z,1008.08
2023-01-02T02:05:54.387Z,1008.12
2023-01-02T02:06:54.412Z,1008.06
2023-01-02T02:07:54.705Z,1008.05
2023-01-02T02:08:54.450Z,1008.07
2023-01-02T02:09:54.471Z,1008.05
2023-01-02T02:10:54.496Z,1008.09
2023-01-02T02:11:54.528Z,1008.09
2023-01-02T02:12:54.620Z,1008.13
2023-01-02T02:13:54.590Z,1008.10
2023-01-02T02:14:54.935Z,1008.08
2023-01-02T02:15:54.651Z,1008.07
2023-01-02T02:16:54.730Z,1008.16
2023-01-02T02:17:54.715Z,1008.21
2023-01-02T02:18:54.841Z,1008.19
2023-01-02T02:19:54.774Z,1008.18
2023-01-02T02:20:54.800Z,1008.14
2023-01-02T02:21:55.156Z,1008.12
2023-01-02T02:22:54.882Z,1008.15
2023-01-02T02:23:54.894Z,1008.12
2023-01-02T02:24:55.021Z,1008.15
2023-01-02T02:25:54.965Z,1008.13
2023-01-02T02:26:54.989Z,1008.20
2023-01-02T02:27:55.019Z,1008.14
2023-01-02T02:28:55.302Z,1008.15
2023-01-02T02:29:55.076Z,1008.19
2023-01-02T02:30:55.104Z,1008.09
2023-01-02T02:31:55.215Z,1008.13
2023-01-02T02:32:55.168Z,1008.12
2023-01-02T02:33:55.195Z,1008.10
2023-01-02T02:34:55.234Z,1008.13
2023-01-02T02:35:55.504Z,1008.14
2023-01-02T02:36:55.290Z,1008.17
2023-01-02T02:37:55.330Z,1008.22
2023-01-02T02:38:55.369Z,1008.16
2023-01-02T02:39:55.377Z,1008.15
2023-01-02T02:40:55.421Z,1008.14
2023-01-02T02:41:55.438Z,1008.17
2023-01-02T02:42:55.724Z,1008.14
2023-01-02T02:43:55.501Z,1008.15
2023-01-02T02:44:55.528Z,1008.12
2023-01-02T02:45:55.611Z,1008.07
2023-01-02T02:46:55.586Z,1008.06
2023-01-02T02:47:55.620Z,1008.01
2023-01-02T02:48:55.652Z,1007.98
2023-01-02T02:49:55.990Z,1007.96
2023-01-02T02:50:55.711Z,1007.97
2023-01-02T02:51:55.740Z,1007.94
2023-01-02T02:52:55.766Z,1007.91
2023-01-02T02:53:55.801Z,1007.91
2023-01-02T02:54:55.956Z,1007.84
2023-01-02T02:55:55.858Z,1007.89
2023-01-02T02:56:56.189Z,1007.81
2023-01-02T02:57:55.920Z,1007.85
2023-01-02T02:58:55.957Z,1007.83
2023-01-02T03:00:56.146Z,1007.73
2023-01-02T03:01:56.147Z,1007.72
2023-01-02T03:02:56.215Z,1007.75
2023-01-02T03:03:56.356Z,1007.75
2023-01-02T03:04:56.146Z,1007.77
2023-01-02T03:05:56.166Z,1007.74
2023-01-02T03:06:56.296Z,1007.81
2023-01-02T03:07:56.228Z,1007.85
2023-01-02T03:09:56.289Z,1007.96
2023-01-02T03:10:56.589Z,1007.95
2023-01-02T03:11:56.645Z,1007.96
2023-01-02T03:13:56.411Z,1007.94
2023-01-02T03:14:56.445Z,1007.95
2023-01-02T03:15:56.471Z,1008.01
2023-01-02T03:17:56.830Z,1008.07
2023-01-02T03:18:56.559Z,1008.10
2023-01-02T03:19:56.587Z,1008.09
2023-01-02T03:20:56.620Z,1008.12
2023-01-02T03:21:56.654Z,1008.11
2023-01-02T03:22:56.683Z,1008.08
2023-01-02T03:23:56.961Z,1008.13
2023-01-02T03:25:56.770Z,1008.13
2023-01-02T03:26:56.831Z,1008.15
2023-01-02T03:27:56.829Z,1008.18
2023-01-02T03:28:56.861Z,1008.14
2023-01-02T03:29:57.243Z,1008.12
2023-01-02T03:30:56.961Z,1008.09
2023-01-02T03:31:56.951Z,1008.13
2023-01-02T03:32:56.994Z,1008.08
2023-01-02T03:33:57.027Z,1008.10
2023-01-02T03:34:57.147Z,1008.12
2023-01-02T03:35:57.396Z,1008.13
2023-01-02T03:36:57.108Z,1008.14
2023-01-02T03:37:57.231Z,1008.15
2023-01-02T03:38:57.168Z,1008.10
2023-01-02T03:39:57.191Z,1008.07
2023-01-02T03:40:57.247Z,1008.07
2023-01-02T03:41:57.258Z,1008.03
2023-01-02T03:42:57.634Z,1007.95
2023-01-02T03:43:57.492Z,1008.00
2023-01-02T03:44:57.348Z,1008.02
2023-01-02T03:45:57.461Z,1007.99
2023-01-02T03:46:57.405Z,1008.00
2023-01-02T03:47:57.436Z,1008.01
2023-01-02T03:48:57.475Z,1007.97
2023-01-02T03:49:57.747Z,1008.00
2023-01-02T03:50:57.529Z,1008.02
2023-01-02T03:51:57.573Z,1008.08
2023-01-02T03:52:57.720Z,1008.12
2023-01-02T03:53:57.617Z,1008.20
2023-01-02T03:54:57.648Z,1008.20
2023-01-02T03:55:57.679Z,1008.16
2023-01-02T03:56:58.021Z,1008.21
2023-01-02T03:57:57.811Z,1008.24
2023-01-02T03:58:57.888Z,1008.33
2023-01-02T03:59:57.802Z,1008.31
2023-01-02T04:00:57.925Z,1008.34
2023-01-02T04:01:57.938Z,1008.35
2023-01-02T04:02:57.911Z,1008.34
2023-01-02T04:03:58.222Z,1008.34
2023-01-02T04:04:58.051Z,1008.32
2023-01-02T04:05:57.981Z,1008.34
2023-01-02T04:06:58.022Z,1008.28
2023-01-02T04:07:58.059Z,1008.24
2023-01-02T04:08:58.076Z,1008.23
2023-01-02T04:09:58.116Z,1008.21
2023-01-02T04:10:58.872Z,1008.12
2023-01-02T04:11:58.170Z,1008.11
2023-01-02T04:12:58.191Z,1008.07
2023-01-02T04:13:58.222Z,1008.08
2023-01-02T04:14:58.272Z,1008.12
2023-01-02T04:15:58.317Z,1008.01
2023-01-02T04:16:58.374Z,1008.10
2023-01-02T04:17:58.601Z,1008.14
2023-01-02T04:18:58.410Z,1008.14
2023-01-02T04:19:58.411Z,1008.18
2023-01-02T04:20:58.436Z,1008.18
2023-01-02T04:21:58.470Z,1008.15
2023-01-02T04:22:58.495Z,1008.17
2023-01-02T04:23:58.528Z,1008.21
2023-01-02T04:24:58.879Z,1008.21
2023-01-02T04:25:58.599Z,1008.24
2023-01-02T04:26:58.622Z,1008.17
2023-01-02T04:27:58.655Z,1008.27
2023-01-02T04:28:58.676Z,1008.30
2023-01-02T04:29:58.710Z,1008.26
2023-01-02T04:30:58.784Z,1008.25
2023-01-02T04:31:59.086Z,1008.31
2023-01-02T04:32:58.802Z,1008.29
2023-01-02T04:33:58.829Z,1008.32
2023-01-02T04:34:58.868Z,1008.36
2023-01-02T04:35:58.942Z,1008.32
2023-01-02T04:36:58.919Z,1008.35
2023-01-02T04:37:58.955Z,1008.30
2023-01-02T04:38:59.241Z,1008.31
2023-01-02T04:39:59.113Z,1008.37
2023-01-02T04:40:59.041Z,1008.41
2023-01-02T04:41:59.072Z,1008.43
2023-01-02T04:42:59.104Z,1008.39
2023-01-02T04:43:59.131Z,1008.44
2023-01-02T04:44:59.166Z,1008.43
2023-01-02T04:45:59.500Z,1008.41
2023-01-02T04:46:59.240Z,1008.49
2023-01-02T04:47:59.256Z,1008.50
2023-01-02T04:48:59.283Z,1008.54
2023-01-02T04:49:59.315Z,1008.58
2023-01-02T04:50:59.343Z,1008.55
2023-01-02T04:51:59.373Z,1008.63
2023-01-02T04:52:59.708Z,1008.66
2023-01-02T04:53:59.446Z,1008.59
2023-01-02T04:54:59.470Z,1008.62
2023-01-02T04:55:59.503Z,1008.64
2023-01-02T04:56:59.525Z,1008.64
2023-01-02T04:57:59.561Z,1008.68
2023-01-02T04:58:59.894Z,1008.66
2023-01-02T04:59:59.615Z,1008.66
2023-01-02T05:00:59.647Z,1008.69
2023-01-02T05:01:59.792Z,1008.76
2023-01-02T05:02:59.729Z,1008.76
2023-01-02T05:03:59.757Z,1008.79
2023-01-02T05:06:00.101Z,1008.73
2023-01-02T05:06:59.844Z,1008.78
2023-01-02T05:07:59.872Z,1008.71
2023-01-02T05:08:59.897Z,1008.76
2023-01-02T05:10:59.954Z,1008.71
2023-01-02T05:12:00.282Z,1008.77
2023-01-02T05:13:00.039Z,1008.80
2023-01-02T05:14:06.982Z,1008.77
2023-01-02T05:15:00.126Z,1008.80
2023-01-02T05:17:00.134Z,1008.78
2023-01-02T05:18:00.415Z,1008.84
2023-01-02T05:19:00.324Z,1008.85
2023-01-02T05:20:00.342Z,1008.87
2023-01-02T05:22:00.293Z,1008.87
2023-01-02T05:23:00.323Z,1008.86
2023-01-02T05:25:00.977Z,1008.84
2023-01-02T05:26:00.406Z,1008.81
2023-01-02T05:27:00.435Z,1008.84
2023-01-02T05:28:00.464Z,1008.88
2023-01-02T05:29:00.512Z,1008.84
2023-01-02T05:30:00.544Z,1008.89
2023-01-02T05:31:00.653Z,1008.85
2023-01-02T05:32:00.891Z,1008.89
2023-01-02T05:33:00.644Z,1008.88
2023-01-02T05:34:00.656Z,1008.83
2023-01-02T05:35:00.711Z,1008.88
2023-01-02T05:36:00.707Z,1008.91
2023-01-02T05:37:00.751Z,1008.95
2023-01-02T05:38:00.804Z,1008.89
2023-01-02T05:39:01.104Z,1008.97
2023-01-02T05:40:00.864Z,1008.94
2023-01-02T05:41:00.863Z,1008.94
2023-01-02T05:42:00.897Z,1008.94
2023-01-02T05:43:00.946Z,1008.92
2023-01-02T05:44:00.959Z,1008.94
2023-01-02T05:45:00.995Z,1008.92
2023-01-02T05:46:01.313Z,1008.90
2023-01-02T05:47:01.048Z,1008.88
2023-01-02T05:48:01.077Z,1008.90
2023-01-02T05:49:01.110Z,1008.88
2023-01-02T05:51:01.301Z,1008.91
2023-01-02T05:52:01.195Z,1008.95
2023-01-02T05:53:01.472Z,1008.95
2023-01-02T05:54:01.283Z,1008.96
2023-01-02T05:55:01.283Z,1009.00
2023-01-02T05:56:01.311Z,1008.99
2023-01-02T05:58:01.378Z,1009.03
2023-01-02T05:59:01.407Z,1008.99
2023-01-02T06:00:01.839Z,1008.96
2023-01-02T06:01:01.468Z,1008.99
2023-01-02T06:02:01.647Z,1009.02
2023-01-02T06:03:01.683Z,1009.04
2023-01-02T06:04:01.599Z,1009.04
2023-01-02T06:05:01.676Z,1009.03
2023-01-02T06:08:02.004Z,1009.02
2023-01-02T06:09:01.717Z,1009.02
2023-01-02T06:10:01.766Z,1008.97
2023-01-02T06:11:01.776Z,1008.99
2023-01-02T06:12:01.799Z,1008.99
2023-01-02T06:13:01.830Z,1009.04
2023-01-02T06:14:01.863Z,1009.07
2023-01-02T06:15:02.149Z,1009.10
2023-01-02T06:16:01.967Z,1009.13
2023-01-02T06:18:01.992Z,1009.16
2023-01-02T06:19:02.018Z,1009.15
2023-01-02T06:20:02.058Z,1009.14
2023-01-02T06:21:02.077Z,1009.15
2023-01-02T06:22:02.359Z,1009.15
2023-01-02T06:23:02.163Z,1009.17
2023-01-02T06:24:02.286Z,1009.19
2023-01-02T06:25:02.206Z,1009.21
2023-01-02T06:26:02.225Z,1009.23
2023-01-02T06:27:02.257Z,1009.19
2023-01-02T06:28:02.311Z,1009.23
2023-01-02T06:29:02.606Z,1009.21
2023-01-02T06:30:02.348Z,1009.25
2023-01-02T06:31:02.375Z,1009.22
2023-01-02T06:33:02.439Z,1009.24
2023-01-02T06:34:02.471Z,1009.26
2023-01-02T06:35:02.498Z,1009.21
2023-01-02T06:36:02.531Z,1009.21
2023-01-02T06:37:09.241Z,1009.24
2023-01-02T06:38:02.596Z,1009.25
2023-01-02T06:39:02.620Z,1009.27
2023-01-02T06:40:02.694Z,1009.27
2023-01-02T06:41:02.726Z,1009.24
2023-01-02T06:42:02.739Z,1009.27
2023-01-02T06:44:02.778Z,1009.29
2023-01-02T06:46:03.062Z,1009.27
2023-01-02T06:47:02.863Z,1009.31
2023-01-02T06:48:02.889Z,1009.29
2023-01-02T06:49:03.022Z,1009.29
2023-01-02T06:50:02.950Z,1009.30
2023-01-02T06:52:03.013Z,1009.34
2023-01-02T06:53:03.043Z,1009.31
2023-01-02T06:54:03.327Z,1009.33
2023-01-02T06:55:03.118Z,1009.35
2023-01-02T06:56:03.262Z,1009.34
2023-01-02T06:57:03.171Z,1009.33
2023-01-02T06:58:09.227Z,1009.35
2023-01-02T06:59:03.274Z,1009.38
2023-01-02T07:00:03.515Z,1009.38
2023-01-02T07:01:03.323Z,1009.34
2023-01-02T07:02:03.439Z,1009.40
2023-01-02T07:03:03.406Z,1009.37
2023-01-02T07:04:03.379Z,1009.38
2023-01-02T07:05:03.405Z,1009.43
2023-01-02T07:06:03.442Z,1009.43
2023-01-02T07:07:03.470Z,1009.45
2023-01-02T07:08:05.047Z,1009.48
2023-01-02T07:09:03.532Z,1009.48
2023-01-02T07:10:03.562Z,1009.51
2023-01-02T07:11:03.592Z,1009.55
2023-01-02T07:12:03.647Z,1009.52
2023-01-02T07:13:03.658Z,1009.54
2023-01-02T07:14:03.691Z,1009.58
2023-01-02T07:15:03.805Z,1009.60
2023-01-02T07:16:03.869Z,1009.61
2023-01-02T07:17:03.796Z,1009.68
2023-01-02T07:18:03.808Z,1009.68
2023-01-02T07:19:03.831Z,1009.70
2023-01-02T07:20:03.943Z,1009.70
2023-01-02T07:21:03.952Z,1009.68
2023-01-02T07:22:03.930Z,1009.77
2023-01-02T07:23:03.951Z,1009.78
2023-01-02T07:24:03.995Z,1009.78
2023-01-02T07:25:04.032Z,1009.79
2023-01-02T07:26:04.045Z,1009.79
2023-01-02T07:27:04.077Z,1009.74
2023-01-02T07:28:04.613Z,1009.72
2023-01-02T07:29:04.183Z,1009.75
2023-01-02T07:30:04.168Z,1009.70
2023-01-02T07:31:04.193Z,1009.75
2023-01-02T07:32:04.240Z,1009.75
2023-01-02T07:33:04.259Z,1009.77
2023-01-02T07:34:04.393Z,1009.80
2023-01-02T07:35:04.375Z,1009.89
2023-01-02T07:36:04.360Z,1009.83
2023-01-02T07:37:04.382Z,1009.83
2023-01-02T07:39:04.491Z,1009.87
2023-01-02T07:40:04.468Z,1009.91
2023-01-02T07:41:04.508Z,1009.89
2023-01-02T07:43:04.970Z,1009.92
2023-01-02T07:44:04.610Z,1009.97
2023-01-02T07:45:04.619Z,1009.98
2023-01-02T07:46:04.735Z,1010.04
2023-01-02T07:47:04.713Z,1010.06
2023-01-02T07:48:04.709Z,1010.13
2023-01-02T07:49:04.749Z,1010.14
2023-01-02T07:50:05.202Z,1010.15
2023-01-02T07:52:04.837Z,1010.20
2023-01-02T07:53:04.903Z,1010.25
2023-01-02T07:54:04.889Z,1010.25
2023-01-02T07:55:04.929Z,1010.29
2023-01-02T07:56:05.532Z,1010.28
2023-01-02T07:57:05.037Z,1010.27
2023-01-02T07:58:05.017Z,1010.24
2023-01-02T07:59:05.093Z,1010.25
2023-01-02T08:02:05.552Z,1010.23
2023-01-02T08:03:05.161Z,1010.25
2023-01-02T08:04:05.284Z,1010.22
2023-01-02T08:05:05.226Z,1010.23
2023-01-02T08:06:05.267Z,1010.30
2023-01-02T08:07:05.286Z,1010.36
2023-01-02T08:08:05.312Z,1010.39
2023-01-02T08:09:05.650Z,1010.46
2023-01-02T08:10:05.374Z,1010.41
2023-01-02T08:11:05.424Z,1010.36
2023-01-02T08:12:05.434Z,1010.37
2023-01-02T08:13:05.466Z,1010.47
2023-01-02T08:14:05.507Z,1010.47
2023-01-02T08:15:05.788Z,1010.48
2023-01-02T08:16:05.643Z,1010.52
2023-01-02T08:17:05.611Z,1010.54
2023-01-02T08:18:05.638Z,1010.58
2023-01-02T08:19:05.651Z,1010.62
2023-01-02T08:20:08.313Z,1010.62
2023-01-02T08:21:05.716Z,1010.66
2023-01-02T08:22:05.748Z,1010.73
2023-01-02T08:23:05.771Z,1010.69
2023-01-02T08:24:05.816Z,1010.66
2023-01-02T08:25:05.848Z,1010.66
2023-01-02T08:26:05.884Z,1010.66
2023-01-02T08:27:05.895Z,1010.65
2023-01-02T08:28:05.925Z,1010.74
2023-01-02T08:29:05.955Z,1010.75
2023-01-02T08:30:06.004Z,1010.86
2023-01-02T08:31:06.071Z,1010.82
2023-01-02T08:32:06.041Z,1010.88
2023-01-02T08:33:06.069Z,1010.91
2023-01-02T08:34:06.126Z,1010.91
2023-01-02T08:35:06.138Z,1010.97
2023-01-02T08:36:06.182Z,1010.95
2023-01-02T08:37:06.240Z,1010.98
2023-01-02T08:38:06.221Z,1010.98
2023-01-02T08:40:06.286Z,1011.03
2023-01-02T08:41:06.329Z,1011.06
2023-01-02T08:42:06.347Z,1011.05
2023-01-02T08:43:06.378Z,1011.07
2023-01-02T08:44:06.407Z,1011.11
2023-01-02T08:46:06.867Z,1011.15
2023-01-02T08:47:06.495Z,1011.22
2023-01-02T08:48:21.037Z,1011.25
2023-01-02T08:49:06.553Z,1011.23
2023-01-02T08:50:06.612Z,1011.23
2023-01-02T08:51:06.627Z,1011.24
2023-01-02T08:52:06.644Z,1011.26
2023-01-02T08:53:12.633Z,1011.29
2023-01-02T08:54:06.744Z,1011.24
2023-01-02T08:55:06.735Z,1011.32
2023-01-02T08:56:06.775Z,1011.35
2023-01-02T08:57:06.793Z,1011.39
2023-01-02T08:58:06.932Z,1011.36
2023-01-02T08:59:07.629Z,1011.36
2023-01-02T09:01:07.275Z,1011.38
2023-01-02T09:02:07.073Z,1011.36
2023-01-02T09:03:07.042Z,1011.35
2023-01-02T09:04:11.927Z,1011.38
2023-01-02T09:05:07.038Z,1011.36
2023-01-02T09:06:07.273Z,1011.44
2023-01-02T09:07:07.098Z,1011.46
2023-01-02T09:08:07.382Z,1011.45
2023-01-02T09:09:11.584Z,1011.52
2023-01-02T09:10:07.193Z,1011.50
2023-01-02T09:11:07.220Z,1011.57
2023-01-02T09:12:07.249Z,1011.59
2023-01-02T09:13:07.280Z,1011.59
2023-01-02T09:14:07.341Z,1011.63
2023-01-02T09:15:07.740Z,1011.59
2023-01-02T09:16:07.437Z,1011.58
2023-01-02T09:17:07.405Z,1011.63
2023-01-02T09:18:07.436Z,1011.60
2023-01-02T09:19:07.466Z,1011.61
2023-01-02T09:20:07.492Z,1011.64
2023-01-02T09:21:07.536Z,1011.66
2023-01-02T09:22:07.830Z,1011.66
2023-01-02T09:23:07.599Z,1011.72
2023-01-02T09:24:07.717Z,1011.71
2023-01-02T09:25:07.644Z,1011.72
2023-01-02T09:26:07.670Z,1011.71
2023-01-02T09:27:07.729Z,1011.70
2023-01-02T09:28:07.729Z,1011.78
2023-01-02T09:29:07.763Z,1011.75
2023-01-02T09:30:07.797Z,1011.83
2023-01-02T09:32:07.861Z,1011.87
2023-01-02T09:34:08.216Z,1011.93
2023-01-02T09:35:07.948Z,1011.93
2023-01-02T09:36:07.971Z,1012.00
2023-01-02T09:37:10.117Z,1011.94
2023-01-02T09:38:08.162Z,1012.00
2023-01-02T09:39:08.063Z,1012.04
2023-01-02T09:40:08.345Z,1012.10
2023-01-02T09:41:08.123Z,1012.15
2023-01-02T09:42:08.154Z,1012.18
2023-01-02T09:43:08.188Z,1012.29
2023-01-02T09:44:08.280Z,1012.33
2023-01-02T09:45:09.130Z,1012.25
2023-01-02T09:46:08.320Z,1012.27
2023-01-02T09:47:08.304Z,1012.33
2023-01-02T09:48:08.328Z,1012.33
2023-01-02T09:49:08.362Z,1012.35
2023-01-02T09:50:08.392Z,1012.31
2023-01-02T09:51:08.448Z,1012.41
2023-01-02T09:52:08.457Z,1012.40
2023-01-02T09:53:08.733Z,1012.52
2023-01-02T09:54:08.543Z,1012.50
2023-01-02T09:55:08.559Z,1012.55
2023-01-02T09:56:08.575Z,1012.51
2023-01-02T09:57:08.604Z,1012.49
2023-01-02T09:58:08.629Z,1012.55
2023-01-02T10:00:08.724Z,1012.59
2023-01-02T10:01:08.722Z,1012.56
2023-01-02T10:02:08.750Z,1012.59
2023-01-02T10:03:08.935Z,1012.65
2023-01-02T10:04:08.853Z,1012.72
2023-01-02T10:05:08.849Z,1012.73
2023-01-02T10:06:08.867Z,1012.76
2023-01-02T10:07:08.901Z,1012.77
2023-01-02T10:08:08.935Z,1012.79
2023-01-02T10:09:08.976Z,1012.75
2023-01-02T10:10:09.021Z,1012.78
2023-01-02T10:11:09.032Z,1012.78
2023-01-02T10:12:09.352Z,1012.80
2023-01-02T10:13:09.082Z,1012.82
2023-01-02T10:15:09.144Z,1012.83
2023-01-02T10:16:09.177Z,1012.86
2023-01-02T10:17:09.201Z,1012.88
2023-01-02T10:18:09.491Z,1012.87
2023-01-02T10:19:09.262Z,1012.85
2023-01-02T10:20:09.299Z,1012.83
2023-01-02T10:21:09.319Z,1012.84
2023-01-02T10:22:09.347Z,1012.84
2023-01-02T10:23:09.385Z,1012.88
2023-01-02T10:24:09.412Z,1012.87
2023-01-02T10:25:09.440Z,1012.91
2023-01-02T10:26:09.505Z,1012.85
2023-01-02T10:27:09.516Z,1012.83
2023-01-02T10:28:09.534Z,1012.84
2023-01-02T10:29:09.566Z,1012.87
2023-01-02T10:30:09.857Z,1012.86
2023-01-02T10:32:09.651Z,1012.92
2023-01-02T10:33:09.680Z,1012.91
2023-01-02T10:34:09.724Z,1012.92
2023-01-02T10:35:09.740Z,1012.95
2023-01-02T10:36:09.768Z,1012.93
2023-01-02T10:37:10.048Z,1012.90
2023-01-02T10:38:09.829Z,1012.92
2023-01-02T10:39:09.856Z,1012.95
2023-01-02T10:40:09.897Z,1012.95
2023-01-02T10:41:09.917Z,1012.93
2023-01-02T10:42:09.970Z,1012.99
2023-01-02T10:43:09.982Z,1012.99
2023-01-02T10:44:10.305Z,1012.99
2023-01-02T10:45:10.044Z,1012.99
2023-01-02T10:46:10.142Z,1013.00
2023-01-02T10:47:10.098Z,1013.01
2023-01-02T10:48:10.126Z,1013.00
2023-01-02T10:49:10.257Z,1012.98
2023-01-02T10:50:10.189Z,1012.99
2023-01-02T10:51:10.479Z,1012.99
2023-01-02T10:52:10.253Z,1013.04
2023-01-02T10:53:10.287Z,1013.08
2023-01-02T10:54:10.318Z,1013.06
2023-01-02T10:55:10.343Z,1012.97
2023-01-02T10:56:10.366Z,1012.97
2023-01-02T10:57:10.403Z,1012.97
2023-01-02T10:58:10.800Z,1012.97
2023-01-02T10:59:10.455Z,1012.99
2023-01-02T11:00:10.493Z,1013.00
2023-01-02T11:01:10.553Z,1013.00
2023-01-02T11:02:10.698Z,1013.04
2023-01-02T11:03:10.743Z,1013.01
2023-01-02T11:04:10.648Z,1013.03
2023-01-02T11:05:10.887Z,1013.03
2023-01-02T11:06:26.187Z,1013.05
2023-01-02T11:07:10.697Z,1013.04
2023-01-02T11:08:10.738Z,1013.05
2023-01-02T11:09:10.760Z,1013.01
2023-01-02T11:10:10.785Z,1013.00
2023-01-02T11:11:10.915Z,1013.03
2023-01-02T11:12:10.952Z,1013.04
2023-01-02T11:13:10.886Z,1013.02
2023-01-02T11:14:10.954Z,1012.97
2023-01-02T11:15:10.937Z,1013.02
2023-01-02T11:16:10.994Z,1013.06
2023-01-02T11:17:10.997Z,1013.05
2023-01-02T11:18:11.026Z,1013.03
2023-01-02T11:19:11.066Z,1013.09
2023-01-02T11:20:11.083Z,1013.09
2023-01-02T11:21:11.110Z,1013.14
2023-01-02T11:22:11.144Z,1013.17
2023-01-02T11:23:11.172Z,1013.16
2023-01-02T11:24:11.208Z,1013.15
2023-01-02T11:25:11.239Z,1013.13
2023-01-02T11:26:11.262Z,1013.07
2023-01-02T11:27:11.296Z,1013.09
2023-01-02T11:28:11.332Z,1013.10
2023-01-02T11:29:11.373Z,1013.12
2023-01-02T11:30:11.727Z,1013.08
2023-01-02T11:31:11.515Z,1013.17
2023-01-02T11:32:11.605Z,1013.16
2023-01-02T11:33:11.575Z,1013.16
2023-01-02T11:34:11.507Z,1013.19
2023-01-02T11:35:11.531Z,1013.24
2023-01-02T11:36:11.588Z,1013.21
2023-01-02T11:37:11.596Z,1013.18
2023-01-02T11:38:11.638Z,1013.15
2023-01-02T11:39:11.651Z,1013.13
2023-01-02T11:40:11.684Z,1013.10
2023-01-02T11:41:11.730Z,1013.10
2023-01-02T11:42:12.095Z,1013.05
2023-01-02T11:43:11.779Z,1013.07
2023-01-02T11:44:17.177Z,1013.06
2023-01-02T11:45:11.839Z,1013.04
2023-01-02T11:46:12.046Z,1013.03
2023-01-02T11:47:11.891Z,1013.04
2023-01-02T11:48:11.923Z,1013.08
2023-01-02T11:49:11.952Z,1013.10
2023-01-02T11:50:11.989Z,1013.09
2023-01-02T11:51:17.374Z,1013.13
2023-01-02T11:52:12.057Z,1013.16
2023-01-02T11:53:12.071Z,1013.15
2023-01-02T11:54:12.130Z,1013.15
2023-01-02T11:55:12.380Z,1013.21
2023-01-02T11:56:12.173Z,1013.18
2023-01-02T11:57:18.433Z,1013.26
2023-01-02T11:58:12.230Z,1013.32
2023-01-02T11:59:12.252Z,1013.35
2023-01-02T12:00:12.298Z,1013.29
2023-01-02T12:01:12.350Z,1013.36
2023-01-02T12:02:12.890Z,1013.34
2023-01-02T12:03:16.730Z,1013.31
2023-01-02T12:04:12.416Z,1013.36
2023-01-02T12:05:12.434Z,1013.38
2023-01-02T12:06:12.476Z,1013.43
2023-01-02T12:07:12.544Z,1013.45
2023-01-02T12:09:12.857Z,1013.50
2023-01-02T12:10:12.580Z,1013.49
2023-01-02T12:11:12.618Z,1013.43
2023-01-02T12:12:12.873Z,1013.40
2023-01-02T12:13:12.668Z,1013.38
2023-01-02T12:15:12.736Z,1013.37
2023-01-02T12:16:13.147Z,1013.38
2023-01-02T12:17:13.553Z,1013.43
2023-01-02T12:18:12.838Z,1013.42
2023-01-02T12:19:12.951Z,1013.51
2023-01-02T12:20:12.880Z,1013.47
2023-01-02T12:21:12.911Z,1013.45
2023-01-02T12:22:13.257Z,1013.49
2023-01-02T12:24:13.011Z,1013.47
2023-01-02T12:26:13.164Z,1013.54
2023-01-02T12:27:13.084Z,1013.58
2023-01-02T12:28:13.192Z,1013.56
2023-01-02T12:29:13.148Z,1013.56
2023-01-02T12:30:13.191Z,1013.55
2023-01-02T12:31:13.215Z,1013.56
2023-01-02T12:32:13.417Z,1013.58
2023-01-02T12:33:13.270Z,1013.57
2023-01-02T12:34:13.356Z,1013.57
2023-01-02T12:35:13.326Z,1013.67
2023-01-02T12:36:13.365Z,1013.71
2023-01-02T12:37:13.388Z,1013.72
2023-01-02T12:38:15.936Z,1013.77
2023-01-02T12:39:13.444Z,1013.75
2023-01-02T12:41:13.807Z,1013.70
2023-01-02T12:42:13.557Z,1013.70
2023-01-02T12:43:13.571Z,1013.69
2023-01-02T12:44:13.602Z,1013.79
2023-01-02T12:45:13.724Z,1013.75
2023-01-02T12:46:13.694Z,1013.74
2023-01-02T12:47:13.687Z,1013.73
2023-01-02T12:48:13.715Z,1013.73
2023-01-02T12:49:13.752Z,1013.74
2023-01-02T12:50:13.794Z,1013.77